Arroyo, Texas
Current Conditions -  °F | °C
As of 7:52 AM on Thursday 27 Nov 2014 (Local Time) from KHRL Reporting Station
Clear Clear  
Wind Chill: 50°   Ceiling: Unl
Heat Index: 50°   Visibility: 10mi
Dew Point: 50°   Wind: 3mph
Humidity: 100%   Direction: 130°SE
Pressure: 30.39"   Gusts: NA
Location:  26.2089°N, 97.6849°W
Report Text: KHRL 271352Z 13003KT 10SM CLR 10/10 A3039 RMK AO2 SLP292 T01000100 $
Loading
Personal Weather Stations






























Interactive Weather Map New forecast layout! Learn more

10-Day Weather Forecast

Advertisements
Track Severe Weather on mobile